Hoopers Valley, New York
Current Conditions -  °F | °C
As of 1:28 AM on Thursday 25 Dec 2014 (Local Time) from KBGM Reporting Station
Overcast Overcast  
Wind Chill: 53°   Ceiling: 4300
Heat Index: 53°   Visibility: 10mi
Dew Point: 47°   Wind: 24mph
Humidity: 80%   Direction: 230°SW
Pressure: 29.43"   Gusts: 35mph
Location:  42.0389°N, 76.3138°W
Report Text: KBGM 250628Z AUTO 23021G30KT 10SM FEW015 BKN043 OVC055 12/08 A2943 RMK AO2 PK WND 25038/0610 RAE21 P0000 T01170083
Loading
Personal Weather Stations






























Interactive Weather Map New forecast layout! Learn more

10-Day Weather Forecast

Advertisements
Track Severe Weather on mobile